BAW157 KBWI-KMEM
Flight info
| Callsign | BAW157 |
|---|---|
| Flight time | 1h 53m |
| Altitude | 36000 |
| Route | FOXHL1 OTTTO Q80 FAREV RAMRD BLUZZ5 |
| Aircraft | B752/M-SDE2E3FGHIJ3J4J7RWXY/LB1 |
Departure
| Time | 2026-05-04 01:42 |
|---|---|
| Airport | Baltimore/Washington International Thurgood Marshall Airport (KBWI) |
Arrival
| Time | 2026-05-04 03:35 |
|---|---|
| Airport | Memphis International Airport (KMEM) |
| Time | Latitude | Longitude | Altitude | Speed | Heading |
|---|---|---|---|---|---|
| 2026-05-04 01:22 | 39.17680 | -76.66885 | 152 ft | 0 kts | 244° |
| 2026-05-04 01:33 | 39.17681 | -76.66880 | 152 ft | 2 kts | 244° |
| 2026-05-04 01:33 | 39.17686 | -76.66869 | 152 ft | 1 kts | 244° |
| 2026-05-04 01:33 | 39.17695 | -76.66853 | 153 ft | 2 kts | 216° |
| 2026-05-04 01:34 | 39.17708 | -76.66845 | 153 ft | 2 kts | 193° |
| 2026-05-04 01:34 | 39.17722 | -76.66844 | 153 ft | 2 kts | 168° |
| 2026-05-04 01:34 | 39.17735 | -76.66850 | 153 ft | 0 kts | 146° |
| 2026-05-04 01:34 | 39.17735 | -76.66849 | 153 ft | 2 kts | 144° |
| 2026-05-04 01:35 | 39.17712 | -76.66829 | 153 ft | 2 kts | 143° |
| 2026-05-04 01:35 | 39.17707 | -76.66824 | 153 ft | 0 kts | 143° |
| 2026-05-04 01:37 | 39.17674 | -76.66793 | 153 ft | 10 kts | 145° |
| 2026-05-04 01:37 | 39.17612 | -76.66773 | 152 ft | 8 kts | 178° |
| 2026-05-04 01:37 | 39.17551 | -76.66773 | 151 ft | 5 kts | 172° |
| 2026-05-04 01:37 | 39.17520 | -76.66724 | 150 ft | 8 kts | 103° |
| 2026-05-04 01:38 | 39.17518 | -76.66620 | 150 ft | 12 kts | 87° |
| 2026-05-04 01:38 | 39.17560 | -76.66536 | 150 ft | 11 kts | 39° |
| 2026-05-04 01:38 | 39.17573 | -76.66476 | 150 ft | 7 kts | 108° |
| 2026-05-04 01:38 | 39.17532 | -76.66386 | 149 ft | 14 kts | 123° |
| 2026-05-04 01:39 | 39.17475 | -76.66275 | 148 ft | 15 kts | 123° |
| 2026-05-04 01:39 | 39.17451 | -76.66122 | 145 ft | 23 kts | 94° |
| 2026-05-04 01:39 | 39.17439 | -76.65886 | 140 ft | 28 kts | 94° |
| 2026-05-04 01:39 | 39.17424 | -76.65642 | 136 ft | 15 kts | 95° |
| 2026-05-04 01:40 | 39.17405 | -76.65541 | 133 ft | 7 kts | 137° |
| 2026-05-04 01:40 | 39.17375 | -76.65523 | 133 ft | 0 kts | 165° |
| 2026-05-04 01:41 | 39.17372 | -76.65522 | 133 ft | 2 kts | 165° |
| 2026-05-04 01:41 | 39.17321 | -76.65519 | 134 ft | 13 kts | 195° |
| 2026-05-04 01:41 | 39.17285 | -76.65660 | 136 ft | 23 kts | 275° |
| 2026-05-04 01:41 | 39.17313 | -76.66152 | 145 ft | 92 kts | 273° |
| 2026-05-04 01:42 | 39.17381 | -76.67278 | 251 ft | 150 kts | 274° |
| 2026-05-04 01:42 | 39.17470 | -76.68722 | 776 ft | 178 kts | 273° |
| 2026-05-04 01:42 | 39.17557 | -76.70472 | 1257 ft | 214 kts | 273° |
| 2026-05-04 01:42 | 39.17654 | -76.72375 | 2038 ft | 215 kts | 273° |
| 2026-05-04 01:43 | 39.17752 | -76.74303 | 2665 ft | 225 kts | 274° |
| 2026-05-04 01:43 | 39.17989 | -76.76379 | 3158 ft | 245 kts | 284° |
| 2026-05-04 01:43 | 39.18413 | -76.78503 | 4734 ft | 251 kts | 283° |
| 2026-05-04 01:43 | 39.18809 | -76.80565 | 6294 ft | 243 kts | 284° |
| 2026-05-04 01:44 | 39.19229 | -76.82723 | 7116 ft | 258 kts | 284° |
| 2026-05-04 01:44 | 39.19655 | -76.84919 | 8295 ft | 260 kts | 284° |
| 2026-05-04 01:44 | 39.20099 | -76.87202 | 9346 ft | 266 kts | 285° |
| 2026-05-04 01:44 | 39.20547 | -76.89511 | 10387 ft | 272 kts | 285° |
| 2026-05-04 01:45 | 39.21020 | -76.91941 | 11156 ft | 290 kts | 285° |
| 2026-05-04 01:45 | 39.21523 | -76.94527 | 11815 ft | 310 kts | 284° |
| 2026-05-04 01:45 | 39.22014 | -77.00305 | 13577 ft | 338 kts | 272° |
| 2026-05-04 01:46 | 39.22073 | -77.03295 | 14750 ft | 341 kts | 273° |
| 2026-05-04 01:46 | 39.22123 | -77.06293 | 15939 ft | 338 kts | 272° |
| 2026-05-04 01:46 | 39.22170 | -77.09335 | 16668 ft | 344 kts | 271° |
| 2026-05-04 01:46 | 39.21868 | -77.12403 | 17445 ft | 349 kts | 256° |
| 2026-05-04 01:47 | 39.20868 | -77.15251 | 18203 ft | 357 kts | 241° |
| 2026-05-04 01:47 | 39.19266 | -77.17725 | 18913 ft | 365 kts | 231° |
| 2026-05-04 01:47 | 39.17502 | -77.20081 | 19616 ft | 368 kts | 232° |
| 2026-05-04 01:47 | 39.15715 | -77.22470 | 20400 ft | 370 kts | 232° |
| 2026-05-04 01:48 | 39.13930 | -77.24841 | 21111 ft | 370 kts | 232° |
| 2026-05-04 01:48 | 39.12135 | -77.27216 | 21644 ft | 374 kts | 232° |
| 2026-05-04 01:48 | 39.10305 | -77.29633 | 22185 ft | 377 kts | 232° |
| 2026-05-04 01:48 | 39.08491 | -77.32027 | 22734 ft | 379 kts | 232° |
| 2026-05-04 01:49 | 39.06670 | -77.34478 | 23205 ft | 379 kts | 236° |
| 2026-05-04 01:49 | 39.05183 | -77.37215 | 23826 ft | 371 kts | 247° |
| 2026-05-04 01:49 | 39.04155 | -77.40252 | 24288 ft | 367 kts | 256° |
| 2026-05-04 01:49 | 39.03392 | -77.43359 | 24694 ft | 370 kts | 257° |
| 2026-05-04 01:50 | 39.02623 | -77.46545 | 25256 ft | 370 kts | 257° |
| 2026-05-04 01:50 | 39.01875 | -77.49709 | 25800 ft | 373 kts | 257° |
| 2026-05-04 01:50 | 39.01134 | -77.52887 | 26396 ft | 376 kts | 257° |
| 2026-05-04 01:50 | 39.00394 | -77.56082 | 27015 ft | 376 kts | 258° |
| 2026-05-04 01:51 | 38.99641 | -77.59343 | 27511 ft | 381 kts | 258° |
| 2026-05-04 01:51 | 38.98895 | -77.62583 | 28076 ft | 381 kts | 258° |
| 2026-05-04 01:51 | 38.98138 | -77.65866 | 28578 ft | 384 kts | 257° |
| 2026-05-04 01:51 | 38.97382 | -77.69153 | 29061 ft | 387 kts | 257° |
| 2026-05-04 01:52 | 38.96625 | -77.72443 | 29621 ft | 387 kts | 257° |
| 2026-05-04 01:52 | 38.95853 | -77.75785 | 30095 ft | 390 kts | 257° |
| 2026-05-04 01:52 | 38.95089 | -77.79099 | 30544 ft | 392 kts | 257° |
| 2026-05-04 01:52 | 38.94313 | -77.82456 | 30920 ft | 395 kts | 257° |
| 2026-05-04 01:53 | 38.93531 | -77.85835 | 31301 ft | 396 kts | 257° |
| 2026-05-04 01:53 | 38.92746 | -77.89223 | 31692 ft | 397 kts | 257° |
| 2026-05-04 01:53 | 38.91955 | -77.92635 | 31854 ft | 404 kts | 256° |
| 2026-05-04 01:53 | 38.91151 | -77.96098 | 32170 ft | 405 kts | 256° |
| 2026-05-04 01:54 | 38.90349 | -77.99536 | 32623 ft | 403 kts | 256° |
| 2026-05-04 01:54 | 38.89576 | -78.02850 | 33060 ft | 400 kts | 256° |
| 2026-05-04 01:54 | 38.88776 | -78.06276 | 33449 ft | 400 kts | 256° |
| 2026-05-04 01:54 | 38.87978 | -78.09691 | 33802 ft | 399 kts | 256° |
| 2026-05-04 01:55 | 38.87185 | -78.13082 | 34199 ft | 396 kts | 256° |
| 2026-05-04 01:55 | 38.86393 | -78.16460 | 34446 ft | 397 kts | 256° |
| 2026-05-04 01:55 | 38.85708 | -78.19865 | 34742 ft | 395 kts | 262° |
| 2026-05-04 01:55 | 38.85485 | -78.23341 | 35010 ft | 393 kts | 270° |
| 2026-05-04 01:56 | 38.85461 | -78.26875 | 35219 ft | 395 kts | 269° |
| 2026-05-04 01:56 | 38.85430 | -78.30379 | 35491 ft | 395 kts | 269° |
| 2026-05-04 01:56 | 38.85402 | -78.33914 | 35688 ft | 397 kts | 270° |
| 2026-05-04 01:56 | 38.85268 | -78.37389 | 35927 ft | 396 kts | 263° |
| 2026-05-04 01:57 | 38.84759 | -78.40862 | 36028 ft | 391 kts | 260° |
| 2026-05-04 01:57 | 38.84213 | -78.44263 | 36032 ft | 392 kts | 260° |
| 2026-05-04 01:57 | 38.83111 | -78.51081 | 36041 ft | 396 kts | 260° |
| 2026-05-04 01:58 | 38.81984 | -78.57964 | 36049 ft | 395 kts | 261° |
| 2026-05-04 01:58 | 38.80854 | -78.64824 | 36040 ft | 394 kts | 260° |
| 2026-05-04 01:59 | 38.79743 | -78.71521 | 36056 ft | 395 kts | 260° |
| 2026-05-04 01:59 | 38.78606 | -78.78352 | 36054 ft | 395 kts | 259° |
| 2026-05-04 02:00 | 38.77269 | -78.86344 | 36055 ft | 395 kts | 260° |
| 2026-05-04 02:00 | 38.76306 | -78.92090 | 36045 ft | 395 kts | 259° |
| 2026-05-04 02:01 | 38.75149 | -78.98949 | 36044 ft | 394 kts | 259° |
| 2026-05-04 02:01 | 38.73994 | -79.05782 | 36051 ft | 395 kts | 260° |
| 2026-05-04 02:02 | 38.72834 | -79.12616 | 36049 ft | 396 kts | 259° |
| 2026-05-04 02:02 | 38.71663 | -79.19485 | 36035 ft | 394 kts | 259° |
| 2026-05-04 02:03 | 38.70507 | -79.26315 | 36048 ft | 396 kts | 260° |
| 2026-05-04 02:03 | 38.69377 | -79.33199 | 36047 ft | 396 kts | 260° |
| 2026-05-04 02:04 | 38.68239 | -79.40104 | 36048 ft | 395 kts | 260° |
| 2026-05-04 02:04 | 38.67673 | -79.43523 | 36212 ft | 390 kts | 260° |
| 2026-05-04 02:04 | 38.67115 | -79.46894 | 36075 ft | 394 kts | 260° |
| 2026-05-04 02:05 | 38.65976 | -79.53745 | 35769 ft | 394 kts | 260° |
| 2026-05-04 02:05 | 38.65413 | -79.57121 | 36246 ft | 391 kts | 260° |
| 2026-05-04 02:05 | 38.64839 | -79.60560 | 35762 ft | 396 kts | 260° |
| 2026-05-04 02:06 | 38.64269 | -79.63960 | 36006 ft | 390 kts | 260° |
| 2026-05-04 02:06 | 38.63761 | -79.66991 | 36053 ft | 391 kts | 259° |
| 2026-05-04 02:06 | 38.62566 | -79.73820 | 36064 ft | 395 kts | 259° |
| 2026-05-04 02:07 | 38.61335 | -79.80688 | 36061 ft | 399 kts | 259° |
| 2026-05-04 02:07 | 38.60087 | -79.87620 | 36062 ft | 398 kts | 259° |
| 2026-05-04 02:08 | 38.58852 | -79.94460 | 36060 ft | 397 kts | 259° |
| 2026-05-04 02:08 | 38.57603 | -80.01360 | 36064 ft | 398 kts | 259° |
| 2026-05-04 02:09 | 38.56356 | -80.08217 | 36070 ft | 399 kts | 259° |
| 2026-05-04 02:09 | 38.55088 | -80.15141 | 36059 ft | 400 kts | 259° |
| 2026-05-04 02:10 | 38.53815 | -80.22029 | 36062 ft | 399 kts | 259° |
| 2026-05-04 02:10 | 38.52543 | -80.28885 | 36057 ft | 400 kts | 259° |
| 2026-05-04 02:11 | 38.51255 | -80.35804 | 36055 ft | 400 kts | 259° |
| 2026-05-04 02:11 | 38.49971 | -80.42674 | 36058 ft | 401 kts | 259° |
| 2026-05-04 02:12 | 38.48672 | -80.49606 | 36054 ft | 401 kts | 259° |
| 2026-05-04 02:12 | 38.47374 | -80.56506 | 36046 ft | 401 kts | 259° |
| 2026-05-04 02:13 | 38.46073 | -80.63399 | 36073 ft | 403 kts | 259° |
| 2026-05-04 02:13 | 38.44819 | -80.70024 | 36071 ft | 403 kts | 258° |
| 2026-05-04 02:14 | 38.43499 | -80.76966 | 36064 ft | 402 kts | 258° |
| 2026-05-04 02:14 | 38.42185 | -80.83862 | 36073 ft | 402 kts | 258° |
| 2026-05-04 02:15 | 38.40861 | -80.90777 | 36064 ft | 403 kts | 258° |
| 2026-05-04 02:15 | 38.39533 | -80.97689 | 36073 ft | 403 kts | 258° |
| 2026-05-04 02:16 | 38.38197 | -81.04624 | 36056 ft | 403 kts | 258° |
| 2026-05-04 02:16 | 38.36792 | -81.11548 | 36075 ft | 403 kts | 255° |
| 2026-05-04 02:17 | 38.35136 | -81.18349 | 36047 ft | 404 kts | 256° |
| 2026-05-04 02:17 | 38.33488 | -81.25154 | 36062 ft | 405 kts | 256° |
| 2026-05-04 02:18 | 38.31822 | -81.32014 | 36062 ft | 403 kts | 256° |
| 2026-05-04 02:18 | 38.30170 | -81.38799 | 36067 ft | 404 kts | 256° |
| 2026-05-04 02:19 | 38.28497 | -81.45651 | 36065 ft | 405 kts | 256° |
| 2026-05-04 02:19 | 38.26826 | -81.52480 | 36063 ft | 405 kts | 256° |
| 2026-05-04 02:20 | 38.25155 | -81.59282 | 36052 ft | 405 kts | 256° |
| 2026-05-04 02:20 | 38.23545 | -81.65823 | 36042 ft | 403 kts | 255° |
| 2026-05-04 02:21 | 38.21807 | -81.72705 | 36066 ft | 407 kts | 253° |
| 2026-05-04 02:21 | 38.19909 | -81.79461 | 36061 ft | 405 kts | 253° |
| 2026-05-04 02:22 | 38.18026 | -81.86179 | 36071 ft | 406 kts | 253° |
| 2026-05-04 02:22 | 38.16127 | -81.92937 | 36068 ft | 406 kts | 254° |
| 2026-05-04 02:23 | 38.14236 | -81.99648 | 36052 ft | 406 kts | 254° |
| 2026-05-04 02:23 | 38.12326 | -82.06410 | 36084 ft | 407 kts | 254° |
| 2026-05-04 02:24 | 38.10424 | -82.13125 | 36062 ft | 406 kts | 254° |
| 2026-05-04 02:24 | 38.08525 | -82.19817 | 36085 ft | 407 kts | 254° |
| 2026-05-04 02:25 | 38.06603 | -82.26571 | 36069 ft | 407 kts | 254° |
| 2026-05-04 02:25 | 38.04686 | -82.33290 | 36059 ft | 406 kts | 253° |
| 2026-05-04 02:26 | 38.02768 | -82.39997 | 36059 ft | 407 kts | 254° |
| 2026-05-04 02:26 | 38.00842 | -82.46714 | 36041 ft | 407 kts | 254° |
| 2026-05-04 02:27 | 37.98904 | -82.53457 | 36073 ft | 408 kts | 254° |
| 2026-05-04 02:27 | 37.96968 | -82.60172 | 36063 ft | 405 kts | 254° |
| 2026-05-04 02:28 | 37.95143 | -82.66489 | 36065 ft | 407 kts | 254° |
| 2026-05-04 02:28 | 37.93177 | -82.73279 | 36079 ft | 408 kts | 254° |
| 2026-05-04 02:29 | 37.91237 | -82.79964 | 36058 ft | 408 kts | 254° |
| 2026-05-04 02:29 | 37.89419 | -82.86159 | 36066 ft | 408 kts | 253° |
| 2026-05-04 02:30 | 37.87388 | -82.92924 | 36062 ft | 409 kts | 253° |
| 2026-05-04 02:30 | 37.85375 | -82.99612 | 36054 ft | 409 kts | 253° |
| 2026-05-04 02:31 | 37.83351 | -83.06325 | 36068 ft | 409 kts | 253° |
| 2026-05-04 02:31 | 37.81329 | -83.13014 | 36045 ft | 409 kts | 253° |
| 2026-05-04 02:32 | 37.79290 | -83.19743 | 36060 ft | 409 kts | 253° |
| 2026-05-04 02:32 | 37.77282 | -83.26418 | 36044 ft | 407 kts | 254° |
| 2026-05-04 02:33 | 37.75354 | -83.33129 | 36053 ft | 410 kts | 254° |
| 2026-05-04 02:33 | 37.73405 | -83.39883 | 36052 ft | 409 kts | 254° |
| 2026-05-04 02:34 | 37.71463 | -83.46596 | 36064 ft | 410 kts | 254° |
| 2026-05-04 02:34 | 37.69506 | -83.53339 | 36051 ft | 411 kts | 254° |
| 2026-05-04 02:35 | 37.67542 | -83.60087 | 36048 ft | 408 kts | 255° |
| 2026-05-04 02:35 | 37.65734 | -83.66288 | 36045 ft | 410 kts | 254° |
| 2026-05-04 02:36 | 37.63781 | -83.72971 | 36064 ft | 410 kts | 253° |
| 2026-05-04 02:36 | 37.61809 | -83.79694 | 36047 ft | 409 kts | 254° |
| 2026-05-04 02:37 | 37.59825 | -83.86451 | 36049 ft | 412 kts | 254° |
| 2026-05-04 02:37 | 37.57851 | -83.93153 | 36053 ft | 411 kts | 254° |
| 2026-05-04 02:38 | 37.55856 | -83.99912 | 36043 ft | 410 kts | 254° |
| 2026-05-04 02:38 | 37.53868 | -84.06625 | 36049 ft | 412 kts | 254° |
| 2026-05-04 02:39 | 37.51857 | -84.13405 | 36051 ft | 412 kts | 254° |
| 2026-05-04 02:39 | 37.49858 | -84.20127 | 36052 ft | 412 kts | 254° |
| 2026-05-04 02:40 | 37.47820 | -84.26885 | 36048 ft | 413 kts | 253° |
| 2026-05-04 02:40 | 37.45720 | -84.33578 | 36044 ft | 412 kts | 253° |
| 2026-05-04 02:41 | 37.43612 | -84.40287 | 36046 ft | 414 kts | 253° |
| 2026-05-04 02:41 | 37.41499 | -84.46998 | 36039 ft | 413 kts | 253° |
| 2026-05-04 02:42 | 37.39389 | -84.53684 | 36037 ft | 414 kts | 253° |
| 2026-05-04 02:42 | 37.37265 | -84.60399 | 36038 ft | 414 kts | 253° |
| 2026-05-04 02:43 | 37.35317 | -84.66544 | 36042 ft | 414 kts | 253° |
| 2026-05-04 02:43 | 37.33174 | -84.73287 | 36045 ft | 414 kts | 253° |
| 2026-05-04 02:44 | 37.31044 | -84.80006 | 36049 ft | 415 kts | 253° |
| 2026-05-04 02:44 | 37.28902 | -84.86767 | 36041 ft | 416 kts | 253° |
| 2026-05-04 02:45 | 37.26769 | -84.93482 | 36044 ft | 415 kts | 253° |
| 2026-05-04 02:45 | 37.24632 | -85.00191 | 36037 ft | 417 kts | 253° |
| 2026-05-04 02:46 | 37.22489 | -85.06905 | 36036 ft | 415 kts | 253° |
| 2026-05-04 02:46 | 37.20468 | -85.13702 | 36044 ft | 413 kts | 259° |
| 2026-05-04 02:47 | 37.19054 | -85.20652 | 36039 ft | 412 kts | 260° |
| 2026-05-04 02:47 | 37.17629 | -85.27583 | 36042 ft | 411 kts | 260° |
| 2026-05-04 02:48 | 37.16187 | -85.34561 | 36038 ft | 413 kts | 260° |
| 2026-05-04 02:48 | 37.14752 | -85.41483 | 36038 ft | 412 kts | 260° |
| 2026-05-04 02:49 | 37.13303 | -85.48450 | 36043 ft | 413 kts | 260° |
| 2026-05-04 02:49 | 37.11861 | -85.55362 | 36042 ft | 412 kts | 260° |
| 2026-05-04 02:50 | 37.10407 | -85.62308 | 36034 ft | 413 kts | 260° |
| 2026-05-04 02:50 | 37.09076 | -85.68647 | 36047 ft | 414 kts | 259° |
| 2026-05-04 02:51 | 37.07605 | -85.75629 | 36039 ft | 413 kts | 260° |
| 2026-05-04 02:51 | 37.06142 | -85.82555 | 36041 ft | 413 kts | 259° |
| 2026-05-04 02:52 | 37.04675 | -85.89477 | 36054 ft | 413 kts | 260° |
| 2026-05-04 02:52 | 37.03196 | -85.96433 | 36042 ft | 413 kts | 260° |
| 2026-05-04 02:53 | 37.01704 | -86.03430 | 36060 ft | 415 kts | 259° |
| 2026-05-04 02:53 | 37.00216 | -86.10381 | 36050 ft | 414 kts | 260° |
| 2026-05-04 02:54 | 36.98723 | -86.17338 | 36048 ft | 414 kts | 260° |
| 2026-05-04 02:54 | 36.97228 | -86.24282 | 36047 ft | 415 kts | 260° |
| 2026-05-04 02:55 | 36.94973 | -86.34713 | 36053 ft | 415 kts | 260° |
| 2026-05-04 02:56 | 36.93458 | -86.41680 | 36042 ft | 416 kts | 259° |
| 2026-05-04 02:56 | 36.91041 | -86.48357 | 36048 ft | 426 kts | 248° |
| 2026-05-04 02:57 | 36.88530 | -86.54163 | 36034 ft | 426 kts | 248° |
| 2026-05-04 02:57 | 36.85657 | -86.60741 | 36031 ft | 428 kts | 248° |
| 2026-05-04 02:58 | 36.83081 | -86.66601 | 36033 ft | 427 kts | 247° |
| 2026-05-04 02:58 | 36.80190 | -86.73154 | 36037 ft | 429 kts | 248° |
| 2026-05-04 02:59 | 36.77306 | -86.79672 | 36037 ft | 429 kts | 248° |
| 2026-05-04 02:59 | 36.74432 | -86.86151 | 36034 ft | 427 kts | 248° |
| 2026-05-04 03:00 | 36.71546 | -86.92647 | 36034 ft | 429 kts | 248° |
| 2026-05-04 03:00 | 36.68646 | -86.99159 | 36029 ft | 429 kts | 248° |
| 2026-05-04 03:01 | 36.65752 | -87.05645 | 36035 ft | 430 kts | 248° |
| 2026-05-04 03:01 | 36.62853 | -87.12128 | 36032 ft | 430 kts | 248° |
| 2026-05-04 03:02 | 36.59999 | -87.18499 | 36032 ft | 431 kts | 248° |
| 2026-05-04 03:02 | 36.57095 | -87.24972 | 36036 ft | 430 kts | 248° |
| 2026-05-04 03:03 | 36.54160 | -87.31497 | 36035 ft | 431 kts | 248° |
| 2026-05-04 03:03 | 36.51229 | -87.38002 | 36035 ft | 431 kts | 248° |
| 2026-05-04 03:04 | 36.48304 | -87.44480 | 36036 ft | 432 kts | 248° |
| 2026-05-04 03:04 | 36.45364 | -87.50980 | 36036 ft | 432 kts | 248° |
| 2026-05-04 03:05 | 36.42399 | -87.57522 | 36035 ft | 433 kts | 248° |
| 2026-05-04 03:05 | 36.39453 | -87.64009 | 35855 ft | 437 kts | 248° |
| 2026-05-04 03:05 | 36.38227 | -87.66707 | 35660 ft | 437 kts | 247° |
| 2026-05-04 03:06 | 36.36758 | -87.69930 | 35446 ft | 435 kts | 247° |
| 2026-05-04 03:06 | 36.35266 | -87.73208 | 34970 ft | 441 kts | 248° |
| 2026-05-04 03:06 | 36.33735 | -87.76569 | 34255 ft | 446 kts | 247° |
| 2026-05-04 03:06 | 36.32227 | -87.79860 | 34157 ft | 432 kts | 248° |
| 2026-05-04 03:07 | 36.30750 | -87.83094 | 33870 ft | 439 kts | 248° |
| 2026-05-04 03:07 | 36.29229 | -87.86436 | 33258 ft | 450 kts | 247° |
| 2026-05-04 03:07 | 36.27688 | -87.89799 | 32641 ft | 450 kts | 247° |
| 2026-05-04 03:07 | 36.26139 | -87.93178 | 32023 ft | 448 kts | 247° |
| 2026-05-04 03:08 | 36.24618 | -87.96491 | 31416 ft | 447 kts | 246° |
| 2026-05-04 03:08 | 36.23080 | -87.99839 | 30800 ft | 449 kts | 246° |
| 2026-05-04 03:08 | 36.21524 | -88.03229 | 30167 ft | 453 kts | 246° |
| 2026-05-04 03:08 | 36.19952 | -88.06647 | 29523 ft | 454 kts | 246° |
| 2026-05-04 03:09 | 36.18449 | -88.09890 | 29120 ft | 426 kts | 246° |
| 2026-05-04 03:09 | 36.17020 | -88.12979 | 28709 ft | 403 kts | 246° |
| 2026-05-04 03:09 | 36.15634 | -88.15992 | 28282 ft | 401 kts | 246° |
| 2026-05-04 03:09 | 36.14253 | -88.18994 | 27838 ft | 403 kts | 246° |
| 2026-05-04 03:10 | 36.12855 | -88.22021 | 27372 ft | 403 kts | 246° |
| 2026-05-04 03:10 | 36.11466 | -88.25027 | 26905 ft | 400 kts | 246° |
| 2026-05-04 03:10 | 36.10106 | -88.27962 | 26452 ft | 396 kts | 246° |
| 2026-05-04 03:10 | 36.08732 | -88.30928 | 25992 ft | 393 kts | 246° |
| 2026-05-04 03:11 | 36.07375 | -88.33854 | 25553 ft | 391 kts | 246° |
| 2026-05-04 03:11 | 36.06027 | -88.36762 | 25084 ft | 391 kts | 246° |
| 2026-05-04 03:11 | 36.04679 | -88.39661 | 24589 ft | 389 kts | 245° |
| 2026-05-04 03:11 | 36.03340 | -88.42540 | 24106 ft | 385 kts | 245° |
| 2026-05-04 03:12 | 36.02013 | -88.45390 | 23628 ft | 383 kts | 245° |
| 2026-05-04 03:12 | 36.00695 | -88.48219 | 23168 ft | 380 kts | 245° |
| 2026-05-04 03:12 | 35.99380 | -88.51041 | 22720 ft | 378 kts | 245° |
| 2026-05-04 03:12 | 35.98055 | -88.53879 | 22265 ft | 377 kts | 245° |
| 2026-05-04 03:13 | 35.96766 | -88.56641 | 21830 ft | 375 kts | 245° |
| 2026-05-04 03:13 | 35.95464 | -88.59428 | 21375 ft | 373 kts | 245° |
| 2026-05-04 03:13 | 35.94163 | -88.62206 | 20929 ft | 372 kts | 245° |
| 2026-05-04 03:13 | 35.92865 | -88.64980 | 20490 ft | 371 kts | 245° |
| 2026-05-04 03:14 | 35.91833 | -88.67184 | 20140 ft | 369 kts | 244° |
| 2026-05-04 03:14 | 35.90534 | -88.69955 | 19704 ft | 368 kts | 245° |
| 2026-05-04 03:14 | 35.89550 | -88.72051 | 19372 ft | 367 kts | 245° |
| 2026-05-04 03:14 | 35.88266 | -88.74787 | 18928 ft | 365 kts | 245° |
| 2026-05-04 03:15 | 35.86988 | -88.77505 | 18489 ft | 362 kts | 245° |
| 2026-05-04 03:15 | 35.85734 | -88.80171 | 18054 ft | 361 kts | 245° |
| 2026-05-04 03:15 | 35.84472 | -88.82854 | 17629 ft | 360 kts | 244° |
| 2026-05-04 03:15 | 35.83223 | -88.85506 | 17186 ft | 359 kts | 244° |
| 2026-05-04 03:16 | 35.81975 | -88.88154 | 16736 ft | 358 kts | 244° |
| 2026-05-04 03:16 | 35.80739 | -88.90775 | 16299 ft | 355 kts | 244° |
| 2026-05-04 03:16 | 35.79503 | -88.93391 | 15867 ft | 353 kts | 244° |
| 2026-05-04 03:16 | 35.78257 | -88.96028 | 15433 ft | 351 kts | 244° |
| 2026-05-04 03:17 | 35.77047 | -88.98590 | 15027 ft | 350 kts | 243° |
| 2026-05-04 03:17 | 35.75817 | -89.01189 | 14617 ft | 349 kts | 243° |
| 2026-05-04 03:17 | 35.74600 | -89.03758 | 14202 ft | 348 kts | 243° |
| 2026-05-04 03:17 | 35.73370 | -89.06294 | 13938 ft | 342 kts | 239° |
| 2026-05-04 03:18 | 35.71825 | -89.08562 | 13529 ft | 351 kts | 229° |
| 2026-05-04 03:18 | 35.70138 | -89.10755 | 13089 ft | 352 kts | 230° |
| 2026-05-04 03:18 | 35.68468 | -89.12934 | 12629 ft | 348 kts | 230° |
| 2026-05-04 03:18 | 35.66807 | -89.15090 | 12221 ft | 343 kts | 229° |
| 2026-05-04 03:19 | 35.65183 | -89.17194 | 11872 ft | 337 kts | 230° |
| 2026-05-04 03:19 | 35.63568 | -89.19282 | 11473 ft | 337 kts | 229° |
| 2026-05-04 03:19 | 35.61958 | -89.21363 | 11182 ft | 335 kts | 229° |
| 2026-05-04 03:19 | 35.60345 | -89.23448 | 10800 ft | 339 kts | 229° |
| 2026-05-04 03:20 | 35.58799 | -89.25650 | 10218 ft | 340 kts | 234° |
| 2026-05-04 03:20 | 35.57325 | -89.27895 | 9948 ft | 329 kts | 233° |
| 2026-05-04 03:20 | 35.55902 | -89.30034 | 9953 ft | 320 kts | 233° |
| 2026-05-04 03:20 | 35.54476 | -89.32178 | 9970 ft | 330 kts | 233° |
| 2026-05-04 03:21 | 35.53006 | -89.34345 | 9964 ft | 333 kts | 232° |
| 2026-05-04 03:21 | 35.51551 | -89.36559 | 9958 ft | 329 kts | 238° |
| 2026-05-04 03:21 | 35.50466 | -89.39008 | 9977 ft | 328 kts | 247° |
| 2026-05-04 03:21 | 35.49470 | -89.41574 | 9720 ft | 337 kts | 247° |
| 2026-05-04 03:22 | 35.48495 | -89.44082 | 9137 ft | 321 kts | 246° |
| 2026-05-04 03:22 | 35.47566 | -89.46470 | 8625 ft | 301 kts | 247° |
| 2026-05-04 03:22 | 35.46687 | -89.48736 | 8109 ft | 284 kts | 247° |
| 2026-05-04 03:22 | 35.45858 | -89.50872 | 7602 ft | 271 kts | 247° |
| 2026-05-04 03:23 | 35.45063 | -89.52915 | 7094 ft | 261 kts | 247° |
| 2026-05-04 03:23 | 35.44295 | -89.54889 | 6588 ft | 252 kts | 247° |
| 2026-05-04 03:23 | 35.43561 | -89.56785 | 6131 ft | 243 kts | 247° |
| 2026-05-04 03:23 | 35.42845 | -89.58639 | 5807 ft | 241 kts | 247° |
| 2026-05-04 03:24 | 35.42137 | -89.60490 | 5433 ft | 242 kts | 247° |
| 2026-05-04 03:24 | 35.41421 | -89.62389 | 5039 ft | 243 kts | 247° |
| 2026-05-04 03:24 | 35.40739 | -89.64223 | 4941 ft | 231 kts | 247° |
| 2026-05-04 03:24 | 35.40225 | -89.65606 | 4954 ft | 220 kts | 246° |
| 2026-05-04 03:25 | 35.39607 | -89.67265 | 4949 ft | 210 kts | 246° |
| 2026-05-04 03:25 | 35.39001 | -89.68892 | 4963 ft | 211 kts | 246° |
| 2026-05-04 03:25 | 35.38376 | -89.70565 | 4956 ft | 216 kts | 246° |
| 2026-05-04 03:25 | 35.37754 | -89.72234 | 4947 ft | 215 kts | 246° |
| 2026-05-04 03:26 | 35.37120 | -89.73934 | 4695 ft | 224 kts | 246° |
| 2026-05-04 03:26 | 35.36484 | -89.75655 | 4472 ft | 222 kts | 246° |
| 2026-05-04 03:26 | 35.35858 | -89.77367 | 4217 ft | 220 kts | 246° |
| 2026-05-04 03:26 | 35.35236 | -89.79087 | 3974 ft | 218 kts | 246° |
| 2026-05-04 03:27 | 35.34634 | -89.80766 | 3720 ft | 217 kts | 246° |
| 2026-05-04 03:27 | 35.34036 | -89.82458 | 3480 ft | 215 kts | 246° |
| 2026-05-04 03:27 | 35.33441 | -89.84154 | 3238 ft | 214 kts | 246° |
| 2026-05-04 03:27 | 35.32862 | -89.85827 | 3005 ft | 212 kts | 246° |
| 2026-05-04 03:28 | 35.32305 | -89.87456 | 2954 ft | 202 kts | 247° |
| 2026-05-04 03:28 | 35.31768 | -89.89043 | 2965 ft | 201 kts | 247° |
| 2026-05-04 03:28 | 35.31108 | -89.90582 | 2975 ft | 207 kts | 227° |
| 2026-05-04 03:28 | 35.30001 | -89.91666 | 2976 ft | 199 kts | 215° |
| 2026-05-04 03:29 | 35.28865 | -89.92548 | 2948 ft | 187 kts | 211° |
| 2026-05-04 03:29 | 35.27699 | -89.93159 | 2948 ft | 177 kts | 202° |
| 2026-05-04 03:29 | 35.26516 | -89.93637 | 2962 ft | 177 kts | 201° |
| 2026-05-04 03:29 | 35.25308 | -89.94112 | 2764 ft | 185 kts | 201° |
| 2026-05-04 03:30 | 35.24103 | -89.94591 | 2612 ft | 179 kts | 201° |
| 2026-05-04 03:30 | 35.22920 | -89.95072 | 2435 ft | 174 kts | 201° |
| 2026-05-04 03:30 | 35.21818 | -89.95521 | 2191 ft | 160 kts | 201° |
| 2026-05-04 03:30 | 35.20786 | -89.95941 | 1956 ft | 149 kts | 197° |
| 2026-05-04 03:31 | 35.19778 | -89.96146 | 1978 ft | 149 kts | 190° |
| 2026-05-04 03:31 | 35.18705 | -89.96304 | 1988 ft | 159 kts | 190° |
| 2026-05-04 03:31 | 35.17619 | -89.96513 | 1947 ft | 155 kts | 194° |
| 2026-05-04 03:31 | 35.16571 | -89.96790 | 2005 ft | 147 kts | 195° |
| 2026-05-04 03:32 | 35.15532 | -89.97040 | 2155 ft | 158 kts | 193° |
| 2026-05-04 03:32 | 35.14440 | -89.97242 | 2142 ft | 159 kts | 189° |
| 2026-05-04 03:32 | 35.13335 | -89.97330 | 2032 ft | 155 kts | 186° |
| 2026-05-04 03:32 | 35.12241 | -89.97380 | 1852 ft | 158 kts | 184° |
| 2026-05-04 03:33 | 35.11127 | -89.97421 | 1418 ft | 160 kts | 186° |
| 2026-05-04 03:33 | 35.10044 | -89.97455 | 1094 ft | 146 kts | 180° |
| 2026-05-04 03:33 | 35.09086 | -89.97404 | 913 ft | 130 kts | 180° |
| 2026-05-04 03:33 | 35.08193 | -89.97360 | 723 ft | 126 kts | 180° |
| 2026-05-04 03:34 | 35.07295 | -89.97340 | 624 ft | 128 kts | 181° |
| 2026-05-04 03:34 | 35.06383 | -89.97337 | 610 ft | 136 kts | 180° |
| 2026-05-04 03:34 | 35.05430 | -89.97300 | 512 ft | 134 kts | 181° |
| 2026-05-04 03:34 | 35.04522 | -89.97283 | 308 ft | 128 kts | 180° |
| 2026-05-04 03:35 | 35.03690 | -89.97272 | 319 ft | 98 kts | 178° |
| 2026-05-04 03:35 | 35.03075 | -89.97256 | 320 ft | 83 kts | 174° |
| 2026-05-04 03:35 | 35.02768 | -89.97315 | 320 ft | 15 kts | 200° |
| 2026-05-04 03:35 | 35.02710 | -89.97369 | 323 ft | 5 kts | 242° |
| 2026-05-04 03:36 | 35.02713 | -89.97398 | 323 ft | 2 kts | 290° |
| 2026-05-04 03:36 | 35.02721 | -89.97414 | 324 ft | 4 kts | 315° |
| 2026-05-04 03:36 | 35.02759 | -89.97429 | 324 ft | 0 kts | 357° |
| 2026-05-04 03:38 | 35.02803 | -89.97430 | 324 ft | 11 kts | 358° |
| 2026-05-04 03:38 | 35.02885 | -89.97432 | 325 ft | 11 kts | 359° |
| 2026-05-04 03:38 | 35.02970 | -89.97433 | 326 ft | 15 kts | 359° |
| 2026-05-04 03:39 | 35.03121 | -89.97435 | 328 ft | 24 kts | 359° |
| 2026-05-04 03:39 | 35.03291 | -89.97440 | 327 ft | 24 kts | 358° |
| 2026-05-04 03:39 | 35.03467 | -89.97445 | 325 ft | 25 kts | 1° |
| 2026-05-04 03:39 | 35.03648 | -89.97446 | 321 ft | 25 kts | 359° |
| 2026-05-04 03:40 | 35.03830 | -89.97450 | 316 ft | 27 kts | 358° |
| 2026-05-04 03:40 | 35.04028 | -89.97456 | 308 ft | 29 kts | 359° |
| 2026-05-04 03:40 | 35.04163 | -89.97465 | 304 ft | 10 kts | 341° |
| 2026-05-04 03:40 | 35.04193 | -89.97520 | 304 ft | 10 kts | 275° |
| 2026-05-04 03:41 | 35.04193 | -89.97662 | 306 ft | 19 kts | 269° |
| 2026-05-04 03:41 | 35.04190 | -89.97778 | 306 ft | 8 kts | 268° |
| 2026-05-04 03:41 | 35.04197 | -89.97831 | 306 ft | 4 kts | 302° |
| 2026-05-04 03:41 | 35.04223 | -89.97862 | 305 ft | 6 kts | 320° |
| 2026-05-04 03:42 | 35.04258 | -89.97900 | 303 ft | 0 kts | 316° |